sensor_id;sensor_type;location;lat;lon;timestamp;temperature;humidity
52387;DHT22;38317;53.084;6.960;2023-01-08T00:00:52;9.50;99.90
52387;DHT22;38317;53.084;6.960;2023-01-08T00:03:18;9.50;99.90
52387;DHT22;38317;53.084;6.960;2023-01-08T00:05:43;9.50;99.90
52387;DHT22;38317;53.084;6.960;2023-01-08T00:08:09;9.50;99.90
52387;DHT22;38317;53.084;6.960;2023-01-08T00:10:36;9.50;99.90
52387;DHT22;38317;53.084;6.960;2023-01-08T00:13:03;9.50;99.90
52387;DHT22;38317;53.084;6.960;2023-01-08T00:15:29;9.50;99.90
52387;DHT22;38317;53.084;6.960;2023-01-08T00:17:58;9.50;99.90
52387;DHT22;38317;53.084;6.960;2023-01-08T00:20:24;9.50;99.90
52387;DHT22;38317;53.084;6.960;2023-01-08T00:22:51;9.50;99.90
52387;DHT22;38317;53.084;6.960;2023-01-08T00:25:17;9.50;99.90
52387;DHT22;38317;53.084;6.960;2023-01-08T00:27:44;9.50;99.90
52387;DHT22;38317;53.084;6.960;2023-01-08T00:30:11;9.50;99.90
52387;DHT22;38317;53.084;6.960;2023-01-08T00:32:37;9.50;99.90
52387;DHT22;38317;53.084;6.960;2023-01-08T00:35:03;9.50;99.90
52387;DHT22;38317;53.084;6.960;2023-01-08T00:37:30;9.50;99.90
52387;DHT22;38317;53.084;6.960;2023-01-08T00:39:55;9.50;99.90
52387;DHT22;38317;53.084;6.960;2023-01-08T00:42:21;9.50;99.90
52387;DHT22;38317;53.084;6.960;2023-01-08T00:44:47;9.60;99.90
52387;DHT22;38317;53.084;6.960;2023-01-08T00:47:13;9.60;99.90
52387;DHT22;38317;53.084;6.960;2023-01-08T00:49:39;9.50;99.90
52387;DHT22;38317;53.084;6.960;2023-01-08T00:52:05;9.60;99.90
52387;DHT22;38317;53.084;6.960;2023-01-08T00:54:31;9.60;99.90
52387;DHT22;38317;53.084;6.960;2023-01-08T00:56:57;9.60;99.90
52387;DHT22;38317;53.084;6.960;2023-01-08T00:59:22;9.60;99.90
52387;DHT22;38317;53.084;6.960;2023-01-08T01:01:48;9.50;99.90
52387;DHT22;38317;53.084;6.960;2023-01-08T01:04:14;9.50;99.90
52387;DHT22;38317;53.084;6.960;2023-01-08T01:06:42;9.50;99.90
52387;DHT22;38317;53.084;6.960;2023-01-08T01:09:08;9.40;99.90
52387;DHT22;38317;53.084;6.960;2023-01-08T01:11:34;9.40;99.90
52387;DHT22;38317;53.084;6.960;2023-01-08T01:14:00;9.40;99.90
52387;DHT22;38317;53.084;6.960;2023-01-08T01:16:26;9.40;99.90
52387;DHT22;38317;53.084;6.960;2023-01-08T01:18:52;9.30;99.90
52387;DHT22;38317;53.084;6.960;2023-01-08T01:21:30;9.30;99.90
52387;DHT22;38317;53.084;6.960;2023-01-08T01:23:58;9.30;99.90
52387;DHT22;38317;53.084;6.960;2023-01-08T01:26:25;9.30;99.90
52387;DHT22;38317;53.084;6.960;2023-01-08T01:28:53;9.30;99.90
52387;DHT22;38317;53.084;6.960;2023-01-08T01:31:19;9.30;99.90
52387;DHT22;38317;53.084;6.960;2023-01-08T01:33:45;9.30;99.90
52387;DHT22;38317;53.084;6.960;2023-01-08T01:36:12;9.30;99.90
52387;DHT22;38317;53.084;6.960;2023-01-08T01:38:42;9.30;99.90
52387;DHT22;38317;53.084;6.960;2023-01-08T01:41:26;9.30;99.90
52387;DHT22;38317;53.084;6.960;2023-01-08T01:43:53;9.30;99.90
52387;DHT22;38317;53.084;6.960;2023-01-08T01:48:47;9.30;99.90
52387;DHT22;38317;53.084;6.960;2023-01-08T01:51:14;9.30;99.90
52387;DHT22;38317;53.084;6.960;2023-01-08T01:53:40;9.30;99.90
52387;DHT22;38317;53.084;6.960;2023-01-08T01:56:07;9.30;99.90
52387;DHT22;38317;53.084;6.960;2023-01-08T01:58:33;9.30;99.90
52387;DHT22;38317;53.084;6.960;2023-01-08T02:01:02;9.30;99.90
52387;DHT22;38317;53.084;6.960;2023-01-08T02:03:33;9.30;99.90
52387;DHT22;38317;53.084;6.960;2023-01-08T02:11:13;9.30;99.90
52387;DHT22;38317;53.084;6.960;2023-01-08T02:13:45;9.30;99.90
52387;DHT22;38317;53.084;6.960;2023-01-08T02:16:52;9.30;99.90
52387;DHT22;38317;53.084;6.960;2023-01-08T02:25:12;9.20;99.90
52387;DHT22;38317;53.084;6.960;2023-01-08T02:27:42;9.20;99.90
52387;DHT22;38317;53.084;6.960;2023-01-08T02:30:10;9.20;99.90
52387;DHT22;38317;53.084;6.960;2023-01-08T02:32:39;9.10;99.90
52387;DHT22;38317;53.084;6.960;2023-01-08T02:35:07;9.10;99.90
52387;DHT22;38317;53.084;6.960;2023-01-08T02:37:34;9.00;99.90
52387;DHT22;38317;53.084;6.960;2023-01-08T02:40:23;9.00;99.90
52387;DHT22;38317;53.084;6.960;2023-01-08T02:43:04;8.90;99.90
52387;DHT22;38317;53.084;6.960;2023-01-08T02:45:47;8.90;99.90
52387;DHT22;38317;53.084;6.960;2023-01-08T02:48:30;8.80;99.90
52387;DHT22;38317;53.084;6.960;2023-01-08T02:53:38;8.80;99.90
52387;DHT22;38317;53.084;6.960;2023-01-08T02:56:15;8.70;99.90
52387;DHT22;38317;53.084;6.960;2023-01-08T02:58:43;8.70;99.90
52387;DHT22;38317;53.084;6.960;2023-01-08T03:01:12;8.60;99.90
52387;DHT22;38317;53.084;6.960;2023-01-08T03:03:41;8.60;99.90
52387;DHT22;38317;53.084;6.960;2023-01-08T03:06:12;8.50;99.90
52387;DHT22;38317;53.084;6.960;2023-01-08T03:08:41;8.60;99.90
52387;DHT22;38317;53.084;6.960;2023-01-08T03:11:13;8.50;99.90
52387;DHT22;38317;53.084;6.960;2023-01-08T03:13:46;8.50;99.90
52387;DHT22;38317;53.084;6.960;2023-01-08T03:16:17;8.50;99.90
52387;DHT22;38317;53.084;6.960;2023-01-08T03:18:49;8.50;99.90
52387;DHT22;38317;53.084;6.960;2023-01-08T03:21:18;8.50;99.90
52387;DHT22;38317;53.084;6.960;2023-01-08T03:23:47;8.50;99.90
52387;DHT22;38317;53.084;6.960;2023-01-08T03:26:17;8.50;99.90
52387;DHT22;38317;53.084;6.960;2023-01-08T03:28:47;8.50;99.90
52387;DHT22;38317;53.084;6.960;2023-01-08T03:31:16;8.40;99.90
52387;DHT22;38317;53.084;6.960;2023-01-08T03:33:44;8.40;99.90
52387;DHT22;38317;53.084;6.960;2023-01-08T03:36:19;8.40;99.90
52387;DHT22;38317;53.084;6.960;2023-01-08T03:39:16;8.50;99.90
52387;DHT22;38317;53.084;6.960;2023-01-08T03:41:45;8.40;99.90
52387;DHT22;38317;53.084;6.960;2023-01-08T03:44:12;8.40;99.90
52387;DHT22;38317;53.084;6.960;2023-01-08T03:46:41;8.40;99.90
52387;DHT22;38317;53.084;6.960;2023-01-08T03:49:09;8.40;99.90
52387;DHT22;38317;53.084;6.960;2023-01-08T03:51:53;8.40;99.90
52387;DHT22;38317;53.084;6.960;2023-01-08T03:54:23;8.40;99.90
52387;DHT22;38317;53.084;6.960;2023-01-08T03:56:49;8.40;99.90
52387;DHT22;38317;53.084;6.960;2023-01-08T03:59:16;8.40;99.90
52387;DHT22;38317;53.084;6.960;2023-01-08T04:01:42;8.40;99.90
52387;DHT22;38317;53.084;6.960;2023-01-08T04:04:10;8.40;99.90
52387;DHT22;38317;53.084;6.960;2023-01-08T04:06:36;8.40;99.90
52387;DHT22;38317;53.084;6.960;2023-01-08T04:09:02;8.40;99.90
52387;DHT22;38317;53.084;6.960;2023-01-08T04:11:28;8.40;99.90
52387;DHT22;38317;53.084;6.960;2023-01-08T04:13:53;8.40;99.90
52387;DHT22;38317;53.084;6.960;2023-01-08T04:16:20;8.30;99.90
52387;DHT22;38317;53.084;6.960;2023-01-08T04:18:46;8.40;99.90
52387;DHT22;38317;53.084;6.960;2023-01-08T04:21:11;8.40;99.90
52387;DHT22;38317;53.084;6.960;2023-01-08T04:23:37;8.40;99.90
52387;DHT22;38317;53.084;6.960;2023-01-08T04:26:04;8.40;99.90
52387;DHT22;38317;53.084;6.960;2023-01-08T04:28:30;8.40;99.90
52387;DHT22;38317;53.084;6.960;2023-01-08T04:30:56;8.50;99.90
52387;DHT22;38317;53.084;6.960;2023-01-08T04:33:22;8.50;99.90
52387;DHT22;38317;53.084;6.960;2023-01-08T04:35:47;8.60;99.90
52387;DHT22;38317;53.084;6.960;2023-01-08T04:38:13;8.60;99.90
52387;DHT22;38317;53.084;6.960;2023-01-08T04:40:39;8.60;99.90
52387;DHT22;38317;53.084;6.960;2023-01-08T04:43:05;8.60;99.90
52387;DHT22;38317;53.084;6.960;2023-01-08T04:45:30;8.60;99.90
52387;DHT22;38317;53.084;6.960;2023-01-08T04:47:57;8.70;99.90
52387;DHT22;38317;53.084;6.960;2023-01-08T04:50:24;8.70;99.90
52387;DHT22;38317;53.084;6.960;2023-01-08T04:52:49;8.70;99.90
52387;DHT22;38317;53.084;6.960;2023-01-08T04:55:15;8.70;99.90
52387;DHT22;38317;53.084;6.960;2023-01-08T04:57:41;8.70;99.90
52387;DHT22;38317;53.084;6.960;2023-01-08T05:00:07;8.70;99.90
52387;DHT22;38317;53.084;6.960;2023-01-08T05:02:33;8.70;99.90
52387;DHT22;38317;53.084;6.960;2023-01-08T05:04:59;8.70;99.90
52387;DHT22;38317;53.084;6.960;2023-01-08T05:07:25;8.70;99.90
52387;DHT22;38317;53.084;6.960;2023-01-08T05:09:51;8.70;99.90
52387;DHT22;38317;53.084;6.960;2023-01-08T05:12:17;8.70;99.90
52387;DHT22;38317;53.084;6.960;2023-01-08T05:14:42;8.70;99.90
52387;DHT22;38317;53.084;6.960;2023-01-08T05:17:08;8.70;99.90
52387;DHT22;38317;53.084;6.960;2023-01-08T05:19:34;8.70;99.90
52387;DHT22;38317;53.084;6.960;2023-01-08T05:21:59;8.70;99.90
52387;DHT22;38317;53.084;6.960;2023-01-08T05:24:25;8.70;99.90
52387;DHT22;38317;53.084;6.960;2023-01-08T05:26:51;8.70;99.90
52387;DHT22;38317;53.084;6.960;2023-01-08T05:29:17;8.70;99.90
52387;DHT22;38317;53.084;6.960;2023-01-08T05:31:43;8.70;99.90
52387;DHT22;38317;53.084;6.960;2023-01-08T05:34:09;8.70;99.90
52387;DHT22;38317;53.084;6.960;2023-01-08T05:36:34;8.70;99.90
52387;DHT22;38317;53.084;6.960;2023-01-08T05:39:00;8.70;99.90
52387;DHT22;38317;53.084;6.960;2023-01-08T05:41:26;8.70;99.90
52387;DHT22;38317;53.084;6.960;2023-01-08T05:43:51;8.70;99.90
52387;DHT22;38317;53.084;6.960;2023-01-08T05:46:17;8.60;99.90
52387;DHT22;38317;53.084;6.960;2023-01-08T05:48:43;8.60;99.90
52387;DHT22;38317;53.084;6.960;2023-01-08T05:51:09;8.60;99.90
52387;DHT22;38317;53.084;6.960;2023-01-08T05:53:34;8.60;99.90
52387;DHT22;38317;53.084;6.960;2023-01-08T05:56:03;8.60;99.90
52387;DHT22;38317;53.084;6.960;2023-01-08T05:58:29;8.60;99.90
52387;DHT22;38317;53.084;6.960;2023-01-08T06:01:05;8.50;99.90
52387;DHT22;38317;53.084;6.960;2023-01-08T06:03:31;8.50;99.90
52387;DHT22;38317;53.084;6.960;2023-01-08T06:06:00;8.50;99.90
52387;DHT22;38317;53.084;6.960;2023-01-08T06:08:27;8.40;99.90
52387;DHT22;38317;53.084;6.960;2023-01-08T06:10:53;8.40;99.90
52387;DHT22;38317;53.084;6.960;2023-01-08T06:13:19;8.40;99.90
52387;DHT22;38317;53.084;6.960;2023-01-08T06:15:44;8.40;99.90
52387;DHT22;38317;53.084;6.960;2023-01-08T06:18:10;8.40;99.90
52387;DHT22;38317;53.084;6.960;2023-01-08T06:20:36;8.30;99.90
52387;DHT22;38317;53.084;6.960;2023-01-08T06:23:02;8.30;99.90
52387;DHT22;38317;53.084;6.960;2023-01-08T06:25:27;8.30;99.90
52387;DHT22;38317;53.084;6.960;2023-01-08T06:27:54;8.30;99.90
52387;DHT22;38317;53.084;6.960;2023-01-08T06:30:20;8.30;99.90
52387;DHT22;38317;53.084;6.960;2023-01-08T06:32:45;8.30;99.90
52387;DHT22;38317;53.084;6.960;2023-01-08T06:35:11;8.30;99.90
52387;DHT22;38317;53.084;6.960;2023-01-08T06:37:37;8.30;99.90
52387;DHT22;38317;53.084;6.960;2023-01-08T06:40:03;8.30;99.90
52387;DHT22;38317;53.084;6.960;2023-01-08T06:42:29;8.30;99.90
52387;DHT22;38317;53.084;6.960;2023-01-08T06:44:54;8.30;99.90
52387;DHT22;38317;53.084;6.960;2023-01-08T06:47:20;8.30;99.90
52387;DHT22;38317;53.084;6.960;2023-01-08T06:49:46;8.30;99.90
52387;DHT22;38317;53.084;6.960;2023-01-08T06:52:11;8.30;99.90
52387;DHT22;38317;53.084;6.960;2023-01-08T06:54:37;8.30;99.90
52387;DHT22;38317;53.084;6.960;2023-01-08T06:57:03;8.20;99.90
52387;DHT22;38317;53.084;6.960;2023-01-08T06:59:29;8.30;99.90
52387;DHT22;38317;53.084;6.960;2023-01-08T07:01:54;8.20;99.90
52387;DHT22;38317;53.084;6.960;2023-01-08T07:04:20;8.20;99.90
52387;DHT22;38317;53.084;6.960;2023-01-08T07:06:46;8.20;99.90
52387;DHT22;38317;53.084;6.960;2023-01-08T07:09:13;8.20;99.90
52387;DHT22;38317;53.084;6.960;2023-01-08T07:11:40;8.10;99.90
52387;DHT22;38317;53.084;6.960;2023-01-08T07:14:06;8.20;99.90
52387;DHT22;38317;53.084;6.960;2023-01-08T07:16:32;8.10;99.90
52387;DHT22;38317;53.084;6.960;2023-01-08T07:18:57;8.10;99.90
52387;DHT22;38317;53.084;6.960;2023-01-08T07:21:23;8.10;99.90
52387;DHT22;38317;53.084;6.960;2023-01-08T07:23:49;8.10;99.90
52387;DHT22;38317;53.084;6.960;2023-01-08T07:26:15;8.10;99.90
52387;DHT22;38317;53.084;6.960;2023-01-08T07:28:42;8.00;99.90
52387;DHT22;38317;53.084;6.960;2023-01-08T07:31:08;8.00;99.90
52387;DHT22;38317;53.084;6.960;2023-01-08T07:33:34;8.10;99.90
52387;DHT22;38317;53.084;6.960;2023-01-08T07:36:01;8.00;99.90
52387;DHT22;38317;53.084;6.960;2023-01-08T07:38:27;8.10;99.90
52387;DHT22;38317;53.084;6.960;2023-01-08T07:40:52;8.10;99.90
52387;DHT22;38317;53.084;6.960;2023-01-08T07:43:18;8.00;99.90
52387;DHT22;38317;53.084;6.960;2023-01-08T07:45:44;8.10;99.90
52387;DHT22;38317;53.084;6.960;2023-01-08T07:48:10;8.10;99.90
52387;DHT22;38317;53.084;6.960;2023-01-08T07:50:41;8.00;99.90
52387;DHT22;38317;53.084;6.960;2023-01-08T07:53:08;8.00;99.90
52387;DHT22;38317;53.084;6.960;2023-01-08T07:55:34;8.00;99.90
52387;DHT22;38317;53.084;6.960;2023-01-08T07:58:00;8.00;99.90
52387;DHT22;38317;53.084;6.960;2023-01-08T08:00:31;8.00;99.90
52387;DHT22;38317;53.084;6.960;2023-01-08T08:03:01;8.00;99.90
52387;DHT22;38317;53.084;6.960;2023-01-08T08:05:28;8.00;99.90
52387;DHT22;38317;53.084;6.960;2023-01-08T08:07:53;8.00;99.90
52387;DHT22;38317;53.084;6.960;2023-01-08T08:10:19;8.00;99.90
52387;DHT22;38317;53.084;6.960;2023-01-08T08:12:45;8.00;99.90
52387;DHT22;38317;53.084;6.960;2023-01-08T08:15:11;7.90;99.90
52387;DHT22;38317;53.084;6.960;2023-01-08T08:17:36;7.90;99.90
52387;DHT22;38317;53.084;6.960;2023-01-08T08:20:02;8.00;99.90
52387;DHT22;38317;53.084;6.960;2023-01-08T08:22:28;7.90;99.90
52387;DHT22;38317;53.084;6.960;2023-01-08T08:24:54;7.90;99.90
52387;DHT22;38317;53.084;6.960;2023-01-08T08:27:20;7.90;99.90
52387;DHT22;38317;53.084;6.960;2023-01-08T08:29:48;7.90;99.90
52387;DHT22;38317;53.084;6.960;2023-01-08T08:32:13;7.90;99.90
52387;DHT22;38317;53.084;6.960;2023-01-08T08:34:39;7.90;99.90
52387;DHT22;38317;53.084;6.960;2023-01-08T08:37:05;7.80;99.90
52387;DHT22;38317;53.084;6.960;2023-01-08T08:39:31;7.80;99.90
52387;DHT22;38317;53.084;6.960;2023-01-08T08:41:56;7.80;99.90
52387;DHT22;38317;53.084;6.960;2023-01-08T08:44:22;7.80;99.90
52387;DHT22;38317;53.084;6.960;2023-01-08T08:46:48;7.80;99.90
52387;DHT22;38317;53.084;6.960;2023-01-08T08:49:14;7.80;99.90
52387;DHT22;38317;53.084;6.960;2023-01-08T08:51:39;7.80;99.90
52387;DHT22;38317;53.084;6.960;2023-01-08T08:54:05;7.80;99.90
52387;DHT22;38317;53.084;6.960;2023-01-08T08:56:31;7.80;99.90
52387;DHT22;38317;53.084;6.960;2023-01-08T08:58:56;7.80;99.90
52387;DHT22;38317;53.084;6.960;2023-01-08T09:01:22;7.80;99.90
52387;DHT22;38317;53.084;6.960;2023-01-08T09:03:48;7.80;99.90
52387;DHT22;38317;53.084;6.960;2023-01-08T09:06:14;7.80;99.90
52387;DHT22;38317;53.084;6.960;2023-01-08T09:08:40;7.80;99.90
52387;DHT22;38317;53.084;6.960;2023-01-08T09:11:06;7.80;99.90
52387;DHT22;38317;53.084;6.960;2023-01-08T09:13:31;7.80;99.90
52387;DHT22;38317;53.084;6.960;2023-01-08T09:15:58;7.80;99.90
52387;DHT22;38317;53.084;6.960;2023-01-08T09:18:23;7.80;99.90
52387;DHT22;38317;53.084;6.960;2023-01-08T09:20:49;7.80;99.90
52387;DHT22;38317;53.084;6.960;2023-01-08T09:23:15;7.90;99.90
52387;DHT22;38317;53.084;6.960;2023-01-08T09:25:40;7.90;99.90
52387;DHT22;38317;53.084;6.960;2023-01-08T09:28:09;7.90;99.90
52387;DHT22;38317;53.084;6.960;2023-01-08T09:30:37;7.90;99.90
52387;DHT22;38317;53.084;6.960;2023-01-08T09:33:04;8.00;99.90
52387;DHT22;38317;53.084;6.960;2023-01-08T09:35:31;8.00;99.90
52387;DHT22;38317;53.084;6.960;2023-01-08T09:37:57;8.00;99.90
52387;DHT22;38317;53.084;6.960;2023-01-08T09:40:27;8.00;99.90
52387;DHT22;38317;53.084;6.960;2023-01-08T09:42:59;8.00;99.90
52387;DHT22;38317;53.084;6.960;2023-01-08T09:45:36;8.00;99.90
52387;DHT22;38317;53.084;6.960;2023-01-08T09:48:12;8.10;99.90
52387;DHT22;38317;53.084;6.960;2023-01-08T09:50:39;8.10;99.90
52387;DHT22;38317;53.084;6.960;2023-01-08T09:53:12;8.10;99.90
52387;DHT22;38317;53.084;6.960;2023-01-08T09:55:40;8.20;99.90
52387;DHT22;38317;53.084;6.960;2023-01-08T10:00:50;8.20;99.90
52387;DHT22;38317;53.084;6.960;2023-01-08T10:03:16;8.20;99.90
52387;DHT22;38317;53.084;6.960;2023-01-08T10:05:42;8.30;99.90
52387;DHT22;38317;53.084;6.960;2023-01-08T10:08:12;8.30;99.90
52387;DHT22;38317;53.084;6.960;2023-01-08T10:10:39;8.30;99.90
52387;DHT22;38317;53.084;6.960;2023-01-08T10:13:05;8.30;99.90
52387;DHT22;38317;53.084;6.960;2023-01-08T10:15:34;8.30;99.90
52387;DHT22;38317;53.084;6.960;2023-01-08T10:18:05;8.40;99.90
52387;DHT22;38317;53.084;6.960;2023-01-08T10:20:32;8.40;99.90
52387;DHT22;38317;53.084;6.960;2023-01-08T10:23:14;8.40;99.90
52387;DHT22;38317;53.084;6.960;2023-01-08T10:25:56;8.50;99.90
52387;DHT22;38317;53.084;6.960;2023-01-08T10:28:25;8.50;99.90
52387;DHT22;38317;53.084;6.960;2023-01-08T10:30:53;8.50;99.90
52387;DHT22;38317;53.084;6.960;2023-01-08T10:33:25;8.50;99.90
52387;DHT22;38317;53.084;6.960;2023-01-08T10:36:00;8.60;99.90
52387;DHT22;38317;53.084;6.960;2023-01-08T10:38:35;8.60;99.90
52387;DHT22;38317;53.084;6.960;2023-01-08T10:41:04;8.60;99.90
52387;DHT22;38317;53.084;6.960;2023-01-08T10:43:59;8.70;99.90
52387;DHT22;38317;53.084;6.960;2023-01-08T10:46:41;8.70;99.90
52387;DHT22;38317;53.084;6.960;2023-01-08T10:49:16;8.70;99.90
52387;DHT22;38317;53.084;6.960;2023-01-08T10:51:51;8.70;99.90
52387;DHT22;38317;53.084;6.960;2023-01-08T10:54:35;8.80;99.90
52387;DHT22;38317;53.084;6.960;2023-01-08T10:57:15;8.80;99.90
52387;DHT22;38317;53.084;6.960;2023-01-08T10:59:43;8.90;99.90
52387;DHT22;38317;53.084;6.960;2023-01-08T11:02:30;8.90;99.90
52387;DHT22;38317;53.084;6.960;2023-01-08T11:04:58;8.90;99.90
52387;DHT22;38317;53.084;6.960;2023-01-08T11:07:25;9.00;99.90
52387;DHT22;38317;53.084;6.960;2023-01-08T11:09:51;9.00;99.90
52387;DHT22;38317;53.084;6.960;2023-01-08T11:14:52;9.10;99.90
52387;DHT22;38317;53.084;6.960;2023-01-08T11:17:18;9.10;99.90
52387;DHT22;38317;53.084;6.960;2023-01-08T11:19:44;9.20;99.90
52387;DHT22;38317;53.084;6.960;2023-01-08T11:22:21;9.20;99.90
52387;DHT22;38317;53.084;6.960;2023-01-08T11:24:48;9.30;99.90
52387;DHT22;38317;53.084;6.960;2023-01-08T11:27:21;9.30;99.90
52387;DHT22;38317;53.084;6.960;2023-01-08T11:30:10;9.30;99.90
52387;DHT22;38317;53.084;6.960;2023-01-08T11:37:49;9.30;99.90
52387;DHT22;38317;53.084;6.960;2023-01-08T11:40:17;9.30;99.90
52387;DHT22;38317;53.084;6.960;2023-01-08T11:51:20;9.30;99.90
52387;DHT22;38317;53.084;6.960;2023-01-08T11:54:16;9.30;99.90
52387;DHT22;38317;53.084;6.960;2023-01-08T12:02:26;9.30;99.90
52387;DHT22;38317;53.084;6.960;2023-01-08T12:08:04;9.20;99.90
52387;DHT22;38317;53.084;6.960;2023-01-08T12:11:05;9.20;99.90
52387;DHT22;38317;53.084;6.960;2023-01-08T12:13:58;9.20;99.90
52387;DHT22;38317;53.084;6.960;2023-01-08T12:24:58;9.10;99.90
52387;DHT22;38317;53.084;6.960;2023-01-08T12:33:42;9.20;99.90
52387;DHT22;38317;53.084;6.960;2023-01-08T12:36:17;9.20;99.90
52387;DHT22;38317;53.084;6.960;2023-01-08T12:38:52;9.20;99.90
52387;DHT22;38317;53.084;6.960;2023-01-08T12:41:20;9.10;99.90
52387;DHT22;38317;53.084;6.960;2023-01-08T12:43:50;9.10;99.90
52387;DHT22;38317;53.084;6.960;2023-01-08T12:46:17;9.10;99.90
52387;DHT22;38317;53.084;6.960;2023-01-08T12:48:45;9.10;99.90
52387;DHT22;38317;53.084;6.960;2023-01-08T12:54:25;9.20;99.90
52387;DHT22;38317;53.084;6.960;2023-01-08T12:57:12;9.20;99.90
52387;DHT22;38317;53.084;6.960;2023-01-08T13:07:48;9.30;99.90
52387;DHT22;38317;53.084;6.960;2023-01-08T13:10:47;9.30;99.90
52387;DHT22;38317;53.084;6.960;2023-01-08T13:13:35;9.20;99.90
52387;DHT22;38317;53.084;6.960;2023-01-08T13:16:18;9.20;99.90
52387;DHT22;38317;53.084;6.960;2023-01-08T13:21:18;9.30;99.90
52387;DHT22;38317;53.084;6.960;2023-01-08T13:23:58;9.40;99.90
52387;DHT22;38317;53.084;6.960;2023-01-08T13:26:33;9.40;99.90
52387;DHT22;38317;53.084;6.960;2023-01-08T13:29:52;9.30;99.90
52387;DHT22;38317;53.084;6.960;2023-01-08T13:31:53;9.40;99.90
52387;DHT22;38317;53.084;6.960;2023-01-08T13:37:00;9.30;99.90
52387;DHT22;38317;53.084;6.960;2023-01-08T13:39:37;9.40;99.90
52387;DHT22;38317;53.084;6.960;2023-01-08T13:42:24;9.30;99.90
52387;DHT22;38317;53.084;6.960;2023-01-08T13:45:00;9.30;99.90
52387;DHT22;38317;53.084;6.960;2023-01-08T13:47:34;9.30;99.90
52387;DHT22;38317;53.084;6.960;2023-01-08T13:50:13;9.20;99.90
52387;DHT22;38317;53.084;6.960;2023-01-08T13:52:49;9.10;99.90
52387;DHT22;38317;53.084;6.960;2023-01-08T13:57:57;9.10;99.90
52387;DHT22;38317;53.084;6.960;2023-01-08T14:00:44;9.10;99.90
52387;DHT22;38317;53.084;6.960;2023-01-08T14:03:25;9.10;99.90
52387;DHT22;38317;53.084;6.960;2023-01-08T14:05:52;9.10;99.90
52387;DHT22;38317;53.084;6.960;2023-01-08T14:08:25;9.10;99.90
52387;DHT22;38317;53.084;6.960;2023-01-08T14:10:52;9.10;99.90
52387;DHT22;38317;53.084;6.960;2023-01-08T14:13:24;9.10;99.90
52387;DHT22;38317;53.084;6.960;2023-01-08T14:15:51;9.10;99.90
52387;DHT22;38317;53.084;6.960;2023-01-08T14:18:18;9.10;99.90
52387;DHT22;38317;53.084;6.960;2023-01-08T14:20:47;9.10;99.90
52387;DHT22;38317;53.084;6.960;2023-01-08T14:23:24;9.20;99.90
52387;DHT22;38317;53.084;6.960;2023-01-08T14:25:51;9.20;99.90
52387;DHT22;38317;53.084;6.960;2023-01-08T14:28:20;9.20;99.90
52387;DHT22;38317;53.084;6.960;2023-01-08T14:30:51;9.20;99.90
52387;DHT22;38317;53.084;6.960;2023-01-08T14:33:22;9.20;99.90
52387;DHT22;38317;53.084;6.960;2023-01-08T14:35:49;9.20;99.90
52387;DHT22;38317;53.084;6.960;2023-01-08T14:38:16;9.10;99.90
52387;DHT22;38317;53.084;6.960;2023-01-08T14:40:50;9.10;99.90
52387;DHT22;38317;53.084;6.960;2023-01-08T14:43:22;9.00;99.90
52387;DHT22;38317;53.084;6.960;2023-01-08T14:45:50;9.00;99.90
52387;DHT22;38317;53.084;6.960;2023-01-08T14:48:33;9.00;99.90
52387;DHT22;38317;53.084;6.960;2023-01-08T14:51:13;8.90;99.90
52387;DHT22;38317;53.084;6.960;2023-01-08T14:53:52;8.90;99.90
52387;DHT22;38317;53.084;6.960;2023-01-08T14:56:23;8.90;99.90
52387;DHT22;38317;53.084;6.960;2023-01-08T14:58:50;8.90;99.90
52387;DHT22;38317;53.084;6.960;2023-01-08T15:01:22;8.90;99.90
52387;DHT22;38317;53.084;6.960;2023-01-08T15:03:50;8.90;99.90
52387;DHT22;38317;53.084;6.960;2023-01-08T15:06:28;8.90;99.90
52387;DHT22;38317;53.084;6.960;2023-01-08T15:08:54;8.90;99.90
52387;DHT22;38317;53.084;6.960;2023-01-08T15:11:23;8.90;99.90
52387;DHT22;38317;53.084;6.960;2023-01-08T15:13:50;8.90;99.90
52387;DHT22;38317;53.084;6.960;2023-01-08T15:17:03;8.90;99.90
52387;DHT22;38317;53.084;6.960;2023-01-08T15:19:25;8.80;99.90
52387;DHT22;38317;53.084;6.960;2023-01-08T15:21:54;8.80;99.90
52387;DHT22;38317;53.084;6.960;2023-01-08T15:24:31;8.70;99.90
52387;DHT22;38317;53.084;6.960;2023-01-08T15:26:58;8.70;99.90
52387;DHT22;38317;53.084;6.960;2023-01-08T15:29:31;8.60;99.90
52387;DHT22;38317;53.084;6.960;2023-01-08T15:34:43;8.50;99.90
52387;DHT22;38317;53.084;6.960;2023-01-08T15:37:09;8.40;99.90
52387;DHT22;38317;53.084;6.960;2023-01-08T15:39:35;8.40;99.90
52387;DHT22;38317;53.084;6.960;2023-01-08T15:45:00;8.30;99.90
52387;DHT22;38317;53.084;6.960;2023-01-08T15:47:25;8.20;99.90
52387;DHT22;38317;53.084;6.960;2023-01-08T15:49:51;8.20;99.90
52387;DHT22;38317;53.084;6.960;2023-01-08T15:52:22;8.20;99.90
52387;DHT22;38317;53.084;6.960;2023-01-08T15:54:49;8.20;99.90
52387;DHT22;38317;53.084;6.960;2023-01-08T15:57:15;8.10;99.90
52387;DHT22;38317;53.084;6.960;2023-01-08T15:59:40;8.10;99.90
52387;DHT22;38317;53.084;6.960;2023-01-08T16:02:10;8.10;99.90
52387;DHT22;38317;53.084;6.960;2023-01-08T16:04:36;8.00;99.90
52387;DHT22;38317;53.084;6.960;2023-01-08T16:07:01;8.00;99.90
52387;DHT22;38317;53.084;6.960;2023-01-08T16:09:27;8.00;99.90
52387;DHT22;38317;53.084;6.960;2023-01-08T16:11:53;7.90;99.90
52387;DHT22;38317;53.084;6.960;2023-01-08T16:14:19;7.90;99.90
52387;DHT22;38317;53.084;6.960;2023-01-08T16:16:44;7.90;99.90
52387;DHT22;38317;53.084;6.960;2023-01-08T16:19:10;7.80;99.90
52387;DHT22;38317;53.084;6.960;2023-01-08T16:21:36;7.80;99.90
52387;DHT22;38317;53.084;6.960;2023-01-08T16:24:01;7.70;99.90
52387;DHT22;38317;53.084;6.960;2023-01-08T16:26:27;7.70;99.90
52387;DHT22;38317;53.084;6.960;2023-01-08T16:28:53;7.70;99.90
52387;DHT22;38317;53.084;6.960;2023-01-08T16:31:19;7.70;99.90
52387;DHT22;38317;53.084;6.960;2023-01-08T16:33:45;7.60;99.90
52387;DHT22;38317;53.084;6.960;2023-01-08T16:36:11;7.60;99.90
52387;DHT22;38317;53.084;6.960;2023-01-08T16:38:36;7.60;99.90
52387;DHT22;38317;53.084;6.960;2023-01-08T16:41:03;7.50;99.90
52387;DHT22;38317;53.084;6.960;2023-01-08T16:43:30;7.50;99.90
52387;DHT22;38317;53.084;6.960;2023-01-08T16:45:55;7.50;99.90
52387;DHT22;38317;53.084;6.960;2023-01-08T16:48:22;7.50;99.90
52387;DHT22;38317;53.084;6.960;2023-01-08T16:50:48;7.50;99.90
52387;DHT22;38317;53.084;6.960;2023-01-08T16:53:14;7.50;99.90
52387;DHT22;38317;53.084;6.960;2023-01-08T16:55:42;7.40;99.90
52387;DHT22;38317;53.084;6.960;2023-01-08T16:58:08;7.40;99.90
52387;DHT22;38317;53.084;6.960;2023-01-08T17:00:35;7.40;99.90
52387;DHT22;38317;53.084;6.960;2023-01-08T17:03:03;7.30;99.90
52387;DHT22;38317;53.084;6.960;2023-01-08T17:05:29;7.30;99.90
52387;DHT22;38317;53.084;6.960;2023-01-08T17:07:56;7.30;99.90
52387;DHT22;38317;53.084;6.960;2023-01-08T17:10:23;7.30;99.90
52387;DHT22;38317;53.084;6.960;2023-01-08T17:12:49;7.30;99.90
52387;DHT22;38317;53.084;6.960;2023-01-08T17:15:15;7.20;99.90
52387;DHT22;38317;53.084;6.960;2023-01-08T17:17:41;7.20;99.90
52387;DHT22;38317;53.084;6.960;2023-01-08T17:20:07;7.20;99.90